Time;durP1;ratioP1;P1;durP2;ratioP2;P2;SDS_P1;SDS_P2;PMS_P1;PMS_P2;Temp;Humidity;BMP_temperature;BMP_pressure;BME280_temperature;BME280_humidity;BME280_pressure;Samples;Min_cycle;Max_cycle;Signal;HPM_P1;HPM_P2
2022/05/15 00:00:38;;;;;;;8.28;3.58;;;;;;;12.87;59.20;100284.38;1761856;80;20999;-78
2022/05/15 00:03:17;;;;;;;6.97;3.12;;;;;;;12.81;59.22;100280.93;1761955;79;21073;-81
2022/05/15 00:05:45;;;;;;;7.40;3.10;;;;;;;12.78;59.31;100286.05;1754762;80;21627;-80
2022/05/15 00:08:12;;;;;;;7.28;3.30;;;;;;;12.73;59.36;100282.84;1763429;79;21057;-80
2022/05/15 00:10:43;;;;;;;10.25;3.70;;;;;;;12.73;59.38;100278.03;1764245;80;21069;-80
2022/05/15 00:13:10;;;;;;;8.83;3.05;;;;;;;12.71;59.53;100281.00;1770374;79;21054;-81
2022/05/15 00:15:42;;;;;;;6.37;3.17;;;;;;;12.68;59.71;100276.19;1758060;79;21042;-80
2022/05/15 00:18:10;;;;;;;5.28;2.65;;;;;;;12.66;59.68;100278.34;1769688;79;21037;-79
2022/05/15 00:20:39;;;;;;;8.28;3.30;;;;;;;12.61;59.88;100278.38;1769660;79;21046;-78
2022/05/15 00:23:08;;;;;;;7.15;2.83;;;;;;;12.58;59.98;100280.27;1761752;79;21858;-79
2022/05/15 00:25:37;;;;;;;7.62;2.75;;;;;;;12.55;60.12;100277.60;1767367;79;20947;-81
2022/05/15 00:28:07;;;;;;;7.70;3.40;;;;;;;12.50;60.29;100278.16;1761858;79;21058;-79
2022/05/15 00:30:35;;;;;;;6.87;3.25;;;;;;;12.43;60.51;100279.27;1758137;79;21006;-79
2022/05/15 00:33:02;;;;;;;8.53;3.12;;;;;;;12.37;60.61;100269.67;1756298;79;21053;-79
2022/05/15 00:35:30;;;;;;;8.95;3.42;;;;;;;12.34;60.70;100268.88;1759705;79;21114;-80
2022/05/15 00:38:02;;;;;;;6.22;3.30;;;;;;;12.30;60.74;100262.45;1755839;79;21081;-79
2022/05/15 00:40:31;;;;;;;6.28;3.22;;;;;;;12.27;60.96;100264.34;1760703;80;20965;-80
2022/05/15 00:42:58;;;;;;;6.65;2.98;;;;;;;12.22;61.23;100268.39;1760872;79;20991;-78
2022/05/15 00:45:28;;;;;;;6.65;3.27;;;;;;;12.18;61.36;100272.70;1755464;79;21531;-80
2022/05/15 00:47:57;;;;;;;6.95;3.27;;;;;;;12.12;61.54;100279.16;1749266;80;21226;-80
2022/05/15 00:50:31;;;;;;;7.35;2.95;;;;;;;12.08;61.79;100277.56;1751458;79;20947;-80
2022/05/15 00:53:02;;;;;;;6.25;3.12;;;;;;;12.05;61.99;100279.45;1765743;79;21041;-79
2022/05/15 00:55:44;;;;;;;8.05;3.45;;;;;;;12.02;62.07;100275.97;1774086;79;21050;-80
2022/05/15 00:58:16;;;;;;;6.35;3.08;;;;;;;11.97;62.35;100272.76;1761101;79;21027;-81
2022/05/15 01:00:43;;;;;;;6.17;3.10;;;;;;;11.92;62.48;100269.32;1776736;79;27123;-80
2022/05/15 01:03:18;;;;;;;8.98;3.35;;;;;;;11.90;62.59;100275.47;1775580;79;21588;-78
2022/05/15 01:05:50;;;;;;;4.97;3.12;;;;;;;11.85;62.75;100274.95;1763211;80;21049;-79
2022/05/15 01:08:19;;;;;;;7.97;3.53;;;;;;;11.81;62.84;100280.53;1772169;79;21069;-80
2022/05/15 01:10:50;;;;;;;5.03;2.80;;;;;;;11.75;62.94;100274.95;1751736;79;21054;-79
2022/05/15 01:13:20;;;;;;;5.28;3.22;;;;;;;11.71;63.08;100272.02;1748652;80;21231;-79
2022/05/15 01:15:48;;;;;;;5.78;2.87;;;;;;;11.66;63.21;100273.36;1766251;80;21029;-79
2022/05/15 01:18:24;;;;;;;7.55;3.27;;;;;;;11.61;63.46;100266.67;1752469;79;21077;-81
2022/05/15 01:20:59;;;;;;;5.45;3.10;;;;;;;11.59;63.76;100270.71;1742845;80;21458;-79
2022/05/15 01:23:29;;;;;;;5.85;3.20;;;;;;;11.56;64.16;100267.23;1777589;78;21545;-82
2022/05/15 01:26:00;;;;;;;6.40;3.00;;;;;;;11.51;64.50;100261.34;1756105;79;21627;-81
2022/05/15 01:28:26;;;;;;;7.50;3.90;;;;;;;11.49;64.58;100264.84;1727746;81;20963;-81
2022/05/15 01:30:55;;;;;;;7.47;3.50;;;;;;;11.47;64.86;100264.30;1760154;80;20994;-80
2022/05/15 01:33:23;;;;;;;6.53;3.35;;;;;;;11.44;64.98;100261.62;1758639;79;21089;-79
2022/05/15 01:35:53;;;;;;;6.22;3.40;;;;;;;11.44;65.15;100263.50;1777187;79;21152;-79
2022/05/15 01:38:21;;;;;;;7.05;3.50;;;;;;;11.41;65.40;100258.69;1752494;79;21145;-79
2022/05/15 01:40:52;;;;;;;5.42;3.67;;;;;;;11.39;65.67;100258.17;1752592;79;21156;-80
2022/05/15 01:43:19;;;;;;;7.37;3.42;;;;;;;11.37;65.68;100258.97;1756507;79;20990;-80
2022/05/15 01:45:49;;;;;;;6.28;3.55;;;;;;;11.36;65.85;100261.37;1760019;79;21192;-80
2022/05/15 01:48:17;;;;;;;9.05;3.12;;;;;;;11.36;66.11;100257.37;1761580;80;21065;-85
2022/05/15 01:50:47;;;;;;;11.20;3.50;;;;;;;11.34;66.34;100256.28;1752014;79;21135;-80
2022/05/15 01:53:19;;;;;;;5.37;3.05;;;;;;;11.34;66.43;100253.61;1759232;80;21510;-79
2022/05/15 01:55:52;;;;;;;7.95;3.50;;;;;;;11.34;66.36;100251.48;1759135;79;22256;-79
2022/05/15 01:58:21;;;;;;;7.72;3.65;;;;;;;11.33;66.48;100247.21;1764080;79;21092;-80
2022/05/15 02:00:51;;;;;;;7.17;3.62;;;;;;;11.32;66.48;100253.61;1756949;79;21094;-80
2022/05/15 02:03:20;;;;;;;6.08;3.62;;;;;;;11.28;66.60;100251.47;1753261;79;21061;-78
2022/05/15 02:05:50;;;;;;;9.38;3.85;;;;;;;11.26;66.74;100262.19;1763377;80;21023;-78
2022/05/15 02:08:18;;;;;;;8.48;3.70;;;;;;;11.22;66.89;100259.25;1751765;79;21030;-79
2022/05/15 02:10:45;;;;;;;9.70;3.92;;;;;;;11.18;66.95;100265.38;1751900;79;21141;-79
2022/05/15 02:13:12;;;;;;;5.72;3.00;;;;;;;11.14;66.99;100257.64;1762664;79;21046;-78
2022/05/15 02:15:41;;;;;;;7.17;3.70;;;;;;;11.12;66.93;100257.92;1757862;79;22220;-79
2022/05/15 02:18:08;;;;;;;8.50;3.27;;;;;;;11.10;67.01;100253.91;1760709;80;21097;-79
2022/05/15 02:20:36;;;;;;;5.62;3.30;;;;;;;11.03;67.06;100243.48;1776485;79;20935;-79
2022/05/15 02:23:03;;;;;;;7.50;3.40;;;;;;;11.01;67.12;100241.06;1764528;80;21597;-79
2022/05/15 02:25:33;;;;;;;6.35;3.70;;;;;;;10.97;67.18;100241.34;1753469;79;21030;-77
2022/05/15 02:28:01;;;;;;;9.83;3.95;;;;;;;10.96;67.34;100241.62;1765644;80;21230;-81
2022/05/15 02:30:33;;;;;;;7.87;3.72;;;;;;;10.93;67.49;100236.27;1774130;80;21608;-81
2022/05/15 02:33:00;;;;;;;8.23;3.95;;;;;;;10.93;67.68;100247.49;1759519;78;21081;-80
2022/05/15 02:35:27;;;;;;;6.67;3.22;;;;;;;10.91;67.87;100249.08;1766264;78;21142;-79
2022/05/15 02:37:57;;;;;;;7.05;3.52;;;;;;;10.91;68.00;100251.75;1788475;79;21046;-81
2022/05/15 02:40:25;;;;;;;5.95;3.20;;;;;;;10.90;68.14;100252.83;1751283;80;21175;-81
2022/05/15 02:42:55;;;;;;;5.92;3.40;;;;;;;10.89;68.21;100250.41;1770982;80;21177;-81
2022/05/15 02:45:26;;;;;;;7.81;3.98;;;;;;;10.88;68.21;100245.60;1451137;82;10000420;-88
2022/05/15 02:47:53;;;;;;;5.83;3.67;;;;;;;10.87;68.25;100252.02;1618074;86;21010;-87
2022/05/15 02:53:06;;;;;;;7.42;4.20;;;;;;;10.85;68.64;100252.02;1683891;83;21139;-86
2022/05/15 02:55:33;;;;;;;8.40;4.00;;;;;;;10.82;68.83;100256.02;1701662;83;21058;-86
2022/05/15 02:58:01;;;;;;;6.65;4.00;;;;;;;10.83;68.94;100262.98;1698834;83;21031;-85
2022/05/15 03:00:28;;;;;;;6.60;3.95;;;;;;;10.84;69.13;100263.77;1673423;83;21117;-86
2022/05/15 03:02:55;;;;;;;6.00;4.12;;;;;;;10.83;69.48;100266.19;1680990;85;22470;-87
2022/05/15 03:05:23;;;;;;;8.48;4.30;;;;;;;10.86;69.63;100274.48;1681430;85;21083;-86
2022/05/15 03:07:50;;;;;;;6.50;4.10;;;;;;;10.89;69.80;100267.27;1637032;85;21083;-89
2022/05/15 03:10:19;;;;;;;8.48;4.10;;;;;;;10.93;69.95;100269.66;1666769;85;21074;-86
2022/05/15 03:12:48;;;;;;;6.90;4.17;;;;;;;10.98;70.13;100279.01;1684628;83;21525;-89
2022/05/15 03:15:15;;;;;;;7.10;4.15;;;;;;;11.03;70.27;100283.03;1668645;85;21238;-85
2022/05/15 03:17:43;;;;;;;6.87;4.60;;;;;;;11.09;70.31;100280.34;1678645;85;21114;-87
2022/05/15 03:20:12;;;;;;;7.30;4.35;;;;;;;11.15;70.30;100285.97;1682674;85;21587;-86
2022/05/15 03:22:39;;;;;;;6.62;4.33;;;;;;;11.20;70.30;100284.10;1696451;83;21051;-87
2022/05/15 03:25:07;;;;;;;6.65;4.40;;;;;;;11.27;70.24;100283.84;1672116;83;21027;-85
2022/05/15 03:27:34;;;;;;;6.72;4.78;;;;;;;11.34;70.21;100281.69;1609081;88;21104;-88
2022/05/15 03:30:01;;;;;;;7.55;4.70;;;;;;;11.40;70.12;100275.81;1651745;86;21086;-84
2022/05/15 03:32:29;;;;;;;8.55;4.58;;;;;;;11.45;70.00;100269.92;1667948;86;21056;-89
2022/05/15 03:34:57;;;;;;;7.58;4.92;;;;;;;11.48;69.89;100277.41;1649326;86;21090;-89
2022/05/15 03:37:25;;;;;;;8.05;4.90;;;;;;;11.50;69.79;100277.13;1658626;84;21059;-87
2022/05/15 03:39:53;;;;;;;6.05;4.30;;;;;;;11.57;69.73;100275.52;1655278;84;21142;-87
2022/05/15 03:42:20;;;;;;;6.47;4.25;;;;;;;11.64;69.62;100282.72;1659476;86;21139;-87
2022/05/15 03:44:48;;;;;;;6.53;4.80;;;;;;;11.68;69.48;100286.45;1650674;85;22601;-86
2022/05/15 03:47:15;;;;;;;9.00;5.00;;;;;;;11.68;69.34;100285.11;1669744;84;21492;-86
2022/05/15 03:49:43;;;;;;;7.37;4.58;;;;;;;11.71;69.32;100290.75;1667586;86;21374;-87
2022/05/15 03:52:10;;;;;;;7.35;5.10;;;;;;;11.77;69.31;100284.04;1667188;86;21210;-89
2022/05/15 03:54:44;;;;;;;6.25;4.70;;;;;;;11.81;69.19;100281.88;1668273;84;21059;-87
2022/05/15 03:57:11;;;;;;;6.72;5.08;;;;;;;11.84;69.17;100281.36;1668725;85;21586;-89
2022/05/15 03:59:39;;;;;;;7.75;4.95;;;;;;;11.90;69.14;100282.16;1668674;86;21126;-88
2022/05/15 04:02:12;;;;;;;7.90;5.00;;;;;;;11.96;69.05;100287.77;1670727;81;21015;-87
2022/05/15 04:04:37;;;;;;;7.50;4.95;;;;;;;12.01;68.81;100290.95;1671021;84;21231;-88
2022/05/15 04:07:05;;;;;;;6.67;4.33;;;;;;;12.03;68.75;100286.94;1678843;83;21043;-88
2022/05/15 04:09:32;;;;;;;8.23;4.72;;;;;;;12.10;68.51;100277.27;1668011;84;21028;-88
2022/05/15 04:12:00;;;;;;;7.67;4.40;;;;;;;12.13;68.29;100280.74;1668019;86;21083;-89
2022/05/15 04:14:27;;;;;;;9.45;5.03;;;;;;;12.15;68.21;100271.91;1675340;84;21032;-89
2022/05/15 04:16:55;;;;;;;8.53;4.62;;;;;;;12.17;68.03;100275.10;1668434;86;21269;-88
2022/05/15 04:19:22;;;;;;;7.05;5.15;;;;;;;12.17;67.98;100286.63;1660318;86;20976;-87
2022/05/15 04:21:49;;;;;;;7.55;4.53;;;;;;;12.19;67.96;100277.77;1651946;86;21063;-87
2022/05/15 04:24:17;;;;;;;7.20;4.60;;;;;;;12.22;67.97;100292.50;1540931;83;9999863;-87
2022/05/15 04:26:46;;;;;;;9.00;4.95;;;;;;;12.24;67.79;100294.89;1670267;84;21280;-88
2022/05/15 04:29:13;;;;;;;7.90;4.97;;;;;;;12.28;67.80;100292.74;1650585;84;21082;-83
2022/05/15 04:31:42;;;;;;;8.50;4.42;;;;;;;12.39;67.74;100283.58;1665954;84;21107;-88
2022/05/15 04:34:09;;;;;;;9.15;5.17;;;;;;;12.46;67.26;100291.85;1650507;86;21004;-86
2022/05/15 04:36:35;;;;;;;8.15;4.58;;;;;;;12.50;67.02;100290.22;1668528;85;21043;-84
2022/05/15 04:39:04;;;;;;;6.60;4.62;;;;;;;12.51;66.74;100294.52;1669109;85;21104;-88
2022/05/15 04:41:31;;;;;;;8.90;4.58;;;;;;;12.49;66.65;100286.73;1671251;81;20936;-86
2022/05/15 04:43:57;;;;;;;7.90;4.75;;;;;;;12.52;66.58;100298.79;1671158;84;21091;-86
2022/05/15 04:46:27;;;;;;;8.63;4.30;;;;;;;12.57;66.59;100300.91;1669846;84;21096;-85
2022/05/15 04:48:54;;;;;;;9.63;4.53;;;;;;;12.68;66.46;100305.13;1667740;86;21111;-87
2022/05/15 04:51:23;;;;;;;10.10;4.65;;;;;;;12.74;66.25;100303.22;1647646;86;21107;-89
2022/05/15 04:53:52;;;;;;;8.67;4.47;;;;;;;12.82;66.10;100294.59;1640441;87;21130;-90
2022/05/15 04:56:19;;;;;;;7.27;4.40;;;;;;;12.93;65.72;100290.49;1661136;85;21364;-87
2022/05/15 04:58:47;;;;;;;7.90;4.33;;;;;;;12.99;65.21;100294.20;1667726;86;21389;-88
2022/05/15 05:01:14;;;;;;;11.47;4.50;;;;;;;13.05;65.11;100287.72;1667425;84;21275;-88
2022/05/15 05:03:42;;;;;;;6.87;3.70;;;;;;;13.11;64.80;100283.92;1663340;84;21240;-88
2022/05/15 05:06:11;;;;;;;6.10;3.80;;;;;;;13.19;64.35;100279.83;1666749;85;21328;-90
2022/05/15 05:08:38;;;;;;;9.57;4.20;;;;;;;13.20;63.96;100286.02;1649608;84;21548;-89
2022/05/15 05:11:05;;;;;;;7.17;4.07;;;;;;;13.25;63.95;100290.81;1652878;86;21299;-89
2022/05/15 05:13:32;;;;;;;6.43;4.20;;;;;;;13.35;63.44;100293.41;1665330;84;21223;-91
2022/05/15 05:16:01;;;;;;;8.47;4.27;;;;;;;13.40;62.88;100289.89;1640820;87;21217;-90
2022/05/15 05:18:29;;;;;;;8.37;3.57;;;;;;;13.48;62.76;100289.81;1662722;86;21311;-89
2022/05/15 05:20:58;;;;;;;8.77;4.07;;;;;;;13.58;62.76;100295.09;1668171;84;21347;-90
2022/05/15 05:23:25;;;;;;;8.60;3.80;;;;;;;13.72;62.46;100300.06;1665434;84;21317;-88
2022/05/15 05:25:52;;;;;;;6.03;3.70;;;;;;;13.81;62.11;100309.08;1548763;83;9999701;-88
2022/05/15 05:28:21;;;;;;;8.50;3.80;;;;;;;13.94;61.92;100304.91;1649707;84;21086;-89
2022/05/15 05:30:49;;;;;;;8.80;3.60;;;;;;;14.17;61.92;100297.14;1649290;85;21441;-88
2022/05/15 05:33:22;;;;;;;7.57;3.43;;;;;;;14.43;61.30;100301.66;1647355;86;21349;-90
2022/05/15 05:35:51;;;;;;;6.50;3.80;;;;;;;14.66;60.68;100300.04;1639121;86;21310;-91
2022/05/15 05:38:19;;;;;;;6.63;3.47;;;;;;;14.87;59.60;100297.33;1639529;85;21174;-88
2022/05/15 05:40:46;;;;;;;7.87;4.03;;;;;;;14.99;58.14;100299.01;1666831;84;21306;-90
2022/05/15 05:43:18;;;;;;;6.87;3.60;;;;;;;15.00;57.40;100294.42;1648323;86;21401;-91
2022/05/15 05:45:56;;;;;;;6.57;3.53;;;;;;;15.01;57.19;100294.14;1654715;86;21213;-87
2022/05/15 05:48:30;;;;;;;6.07;3.30;;;;;;;15.04;57.35;100295.45;1658618;86;21942;-92
2022/05/15 05:50:59;;;;;;;6.83;3.47;;;;;;;15.04;57.15;100288.73;1653792;86;21984;-90
2022/05/15 05:53:26;;;;;;;7.93;3.57;;;;;;;15.10;56.82;100283.50;1662614;86;21383;-87
2022/05/15 05:55:53;;;;;;;7.07;3.33;;;;;;;15.18;56.58;100282.84;1641604;86;21331;-89
2022/05/15 05:58:20;;;;;;;8.30;3.27;;;;;;;15.25;56.29;100283.26;1663528;85;21925;-87
2022/05/15 06:00:47;;;;;;;8.13;3.00;;;;;;;15.31;55.96;100288.57;1761093;77;21340;-87
2022/05/15 06:06:05;;;;;;;7.03;3.20;;;;;;;15.40;55.31;100292.98;1816795;77;21388;-91
2022/05/15 06:08:32;;;;;;;7.60;2.73;;;;;;;15.40;55.31;100292.98;1816634;77;21612;-88
2022/05/15 06:11:00;;;;;;;7.27;3.23;;;;;;;15.57;55.47;100292.97;1796171;78;21357;-87
2022/05/15 06:13:27;;;;;;;9.50;3.30;;;;;;;15.69;54.82;100294.64;1782264;79;21396;-90
2022/05/15 06:15:57;;;;;;;5.80;2.90;;;;;;;15.91;54.67;100294.77;1789104;78;21529;-87
2022/05/15 06:18:26;;;;;;;5.77;2.80;;;;;;;15.91;54.67;100294.77;1805600;78;21457;-89
2022/05/15 06:20:59;;;;;;;5.37;2.60;;;;;;;15.97;53.49;100287.39;1799826;79;21461;-88
2022/05/15 06:23:28;;;;;;;8.85;2.95;;;;;;;16.03;53.08;100294.84;1800527;79;22038;-87
2022/05/15 06:25:57;;;;;;;6.67;2.93;;;;;;;15.99;52.87;100300.03;1776065;79;21086;-87
2022/05/15 06:28:26;;;;;;;6.10;2.53;;;;;;;15.91;52.69;100306.89;1764907;79;21556;-88
2022/05/15 06:30:52;;;;;;;5.40;2.60;;;;;;;15.77;52.24;100301.25;1801160;79;22001;-87
2022/05/15 06:33:19;;;;;;;7.00;2.80;;;;;;;15.72;52.62;100307.52;1769341;79;21539;-88
2022/05/15 06:35:46;;;;;;;6.30;2.67;;;;;;;15.72;52.62;100307.52;1769165;79;21820;-87
2022/05/15 06:38:13;;;;;;;5.43;2.60;;;;;;;15.69;52.89;100302.20;1768985;80;21610;-87
2022/05/15 06:40:41;;;;;;;7.77;3.10;;;;;;;15.69;52.89;100302.20;1770391;79;21450;-90
2022/05/15 06:43:10;;;;;;;6.07;2.83;;;;;;;15.65;53.37;100289.58;1794676;79;22133;-88
2022/05/15 06:45:38;;;;;;;7.53;3.17;;;;;;;15.67;53.39;100294.95;1789487;78;21506;-88
2022/05/15 06:48:06;;;;;;;7.17;2.90;;;;;;;15.67;53.49;100289.57;1778391;78;21403;-86
2022/05/15 06:50:34;;;;;;;7.23;3.00;;;;;;;15.67;53.49;100289.57;1816225;77;21301;-87
2022/05/15 06:53:02;;;;;;;6.33;2.93;;;;;;;15.62;53.78;100286.92;1809515;77;21518;-91
2022/05/15 06:55:29;;;;;;;8.20;3.37;;;;;;;15.65;53.82;100290.92;1800823;77;21987;-86
2022/05/15 06:57:57;;;;;;;6.50;2.90;;;;;;;15.69;54.14;100284.70;1795853;77;21763;-90
2022/05/15 07:00:27;;;;;;;7.13;2.90;;;;;;;15.75;54.26;100294.01;1780136;78;21691;-88
2022/05/15 07:02:56;;;;;;;;;;;;;;;15.82;54.24;100302.48;1840496;76;21698;-89
2022/05/15 07:05:26;;;;;;;6.27;2.83;;;;;;;15.83;53.88;100292.78;1843984;75;21634;-89
2022/05/15 07:07:53;;;;;;;8.97;3.40;;;;;;;15.93;53.68;100288.55;1819140;77;21478;-89
2022/05/15 07:13:18;;;;;;;7.53;3.40;;;;;;;15.98;53.62;100286.29;1822740;77;21503;-90
2022/05/15 07:15:46;;;;;;;7.47;3.15;;;;;;;16.15;53.95;100289.72;1776934;79;21681;-92
2022/05/15 07:18:15;;;;;;;7.37;3.27;;;;;;;16.28;53.29;100284.08;1677054;79;10000020;-88
2022/05/15 07:20:42;;;;;;;6.77;3.00;;;;;;;16.39;53.38;100281.43;1791142;79;21300;-91
2022/05/15 07:23:13;;;;;;;8.30;3.53;;;;;;;16.54;53.66;100279.73;1791494;79;21669;-89
2022/05/15 07:25:40;;;;;;;7.77;3.40;;;;;;;16.70;52.24;100280.19;1742396;80;21678;-88
2022/05/15 07:28:07;;;;;;;6.67;3.20;;;;;;;16.79;52.03;100280.31;1780216;80;21844;-90
2022/05/15 07:30:37;;;;;;;6.47;2.80;;;;;;;16.92;52.01;100284.85;1779872;80;21763;-91
2022/05/15 07:33:05;;;;;;;7.30;3.00;;;;;;;17.03;51.08;100268.66;1780593;79;21708;-87
2022/05/15 07:35:32;;;;;;;8.77;3.00;;;;;;;17.07;50.96;100269.62;1812084;79;21725;-87
2022/05/15 07:38:00;;;;;;;7.67;3.40;;;;;;;17.13;50.74;100264.91;1811932;79;22999;-89
2022/05/15 07:40:27;;;;;;;5.63;3.00;;;;;;;17.22;50.98;100280.61;1811627;79;21773;-87
2022/05/15 07:42:55;;;;;;;6.43;2.80;;;;;;;17.31;49.36;100269.33;1809096;79;21677;-89
2022/05/15 07:45:22;;;;;;;6.47;2.90;;;;;;;17.35;49.80;100266.80;1780353;80;21739;-89
2022/05/15 07:47:49;;;;;;;5.60;2.50;;;;;;;17.47;49.99;100261.63;1780750;80;21743;-91
2022/05/15 07:50:16;;;;;;;7.53;2.40;;;;;;;17.72;49.38;100256.65;1789248;79;21643;-88
2022/05/15 07:52:43;;;;;;;8.00;2.87;;;;;;;17.90;48.42;100254.30;1812697;79;22542;-91
2022/05/15 07:55:12;;;;;;;5.57;2.87;;;;;;;18.06;47.69;100241.12;1812681;79;21733;-90
2022/05/15 07:57:39;;;;;;;6.53;2.93;;;;;;;18.06;47.69;100241.12;1813385;79;21128;-88
2022/05/15 08:00:09;;;;;;;6.67;2.80;;;;;;;18.07;47.88;100252.75;1811751;78;22165;-89
2022/05/15 08:02:38;;;;;;;4.37;2.30;;;;;;;18.15;47.58;100250.61;1798764;79;21113;-88
2022/05/15 08:08:09;;;;;;;6.23;3.07;;;;;;;18.54;46.61;100242.95;1782380;80;21700;-90
2022/05/15 08:10:44;;;;;;;5.03;2.80;;;;;;;18.64;46.66;100237.78;1782273;80;21022;-92
2022/05/15 08:13:14;;;;;;;5.70;2.70;;;;;;;18.71;46.50;100232.11;1783421;79;21145;-92
2022/05/15 08:15:43;;;;;;;5.70;2.67;;;;;;;18.77;45.82;100221.17;1729231;80;21451;-90
2022/05/15 08:23:54;;;;;;;6.97;2.70;;;;;;;18.47;45.91;100235.30;1829588;77;21095;-85
2022/05/15 08:26:21;;;;;;;6.53;2.30;;;;;;;18.31;45.92;100244.99;1831056;77;21838;-90
2022/05/15 08:28:48;;;;;;;5.83;2.70;;;;;;;18.20;46.63;100236.95;1854966;77;21036;-88
2022/05/15 08:31:17;;;;;;;7.43;2.90;;;;;;;18.15;46.98;100236.53;1832533;76;20989;-87
2022/05/15 08:33:44;;;;;;;5.10;2.40;;;;;;;18.13;47.25;100249.59;1836686;77;21691;-90
2022/05/15 08:36:12;;;;;;;5.23;2.43;;;;;;;18.16;47.23;100234.63;1838983;77;21111;-88
2022/05/15 08:38:39;;;;;;;6.00;2.40;;;;;;;18.18;46.76;100230.50;1820997;78;21145;-86
2022/05/15 08:41:32;;;;;;;8.00;2.33;;;;;;;18.23;46.57;100230.92;1841660;77;21037;-89
2022/05/15 08:44:21;;;;;;;5.37;2.20;;;;;;;18.32;46.63;100222.80;1838641;77;21548;-88
2022/05/15 08:47:20;;;;;;;7.20;2.53;;;;;;;18.47;45.70;100223.13;1831779;77;21044;-87
2022/05/15 08:49:54;;;;;;;3.97;2.00;;;;;;;18.48;44.69;100219.31;1831604;77;21005;-89
2022/05/15 08:52:32;;;;;;;5.27;2.10;;;;;;;18.36;42.48;100228.62;1839140;77;21074;-91
2022/05/15 08:55:08;;;;;;;5.57;2.20;;;;;;;18.29;43.47;100224.22;1843689;77;20981;-89
2022/05/15 08:58:00;;;;;;;5.50;2.00;;;;;;;18.32;43.17;100230.91;1821616;78;21072;-90
2022/05/15 09:00:36;;;;;;;4.93;1.87;;;;;;;18.37;43.04;100238.88;1790723;78;21591;-86
2022/05/15 09:03:21;;;;;;;6.60;2.10;;;;;;;18.42;42.87;100221.13;1822645;78;21087;-90
2022/05/15 09:06:02;;;;;;;7.37;2.57;;;;;;;18.44;42.61;100231.88;1810030;78;21242;-91
2022/05/15 09:09:04;;;;;;;4.97;2.00;;;;;;;18.46;42.77;100214.80;1806584;77;21024;-90
2022/05/15 09:11:57;;;;;;;5.47;2.00;;;;;;;18.55;41.86;100227.50;1849663;77;21628;-86
2022/05/15 09:14:42;;;;;;;5.83;2.20;;;;;;;18.69;41.99;100220.84;1853097;77;21603;-87
2022/05/15 09:17:24;;;;;;;6.63;2.10;;;;;;;18.98;41.29;100203.14;1852702;77;21061;-88
2022/05/15 09:19:55;;;;;;;5.33;2.10;;;;;;;19.25;40.84;100214.16;1852849;77;21134;-90
2022/05/15 09:22:30;;;;;;;6.80;2.40;;;;;;;19.39;39.69;100213.95;1852844;77;21147;-86
2022/05/15 09:24:58;;;;;;;6.10;2.23;;;;;;;19.43;40.18;100215.67;1852802;77;21092;-90
2022/05/15 09:27:27;;;;;;;5.63;2.10;;;;;;;19.43;39.14;100206.19;1852826;77;21073;-92
2022/05/15 09:30:00;;;;;;;8.33;2.30;;;;;;;19.32;38.71;100204.18;1818908;77;21131;-87
2022/05/15 09:32:40;;;;;;;6.07;1.87;;;;;;;19.18;39.26;100216.55;1833101;77;21211;-88
2022/05/15 09:35:29;;;;;;;6.70;2.20;;;;;;;19.08;38.63;100193.88;1812088;79;21050;-90
2022/05/15 09:43:36;;;;;;;;;;;;;;;18.95;38.80;100212.72;1818202;79;21003;-89
2022/05/15 09:46:18;;;;;;;5.47;1.87;;;;;;;19.05;39.20;100202.11;1776677;79;21072;-88
2022/05/15 09:49:05;;;;;;;5.73;1.90;;;;;;;19.29;39.12;100200.20;1657822;78;9999948;-88
2022/05/15 09:51:49;;;;;;;7.37;2.40;;;;;;;19.60;38.44;100201.25;1795420;79;21301;-88
2022/05/15 09:54:42;;;;;;;5.77;1.97;;;;;;;19.77;37.69;100179.28;1775484;80;21083;-89
2022/05/15 09:57:25;;;;;;;5.47;2.00;;;;;;;19.84;37.75;100185.80;1803386;79;21105;-88
2022/05/15 10:00:03;;;;;;;6.37;1.87;;;;;;;19.89;37.69;100188.30;1797486;79;21019;-89
2022/05/15 10:02:47;;;;;;;4.20;1.80;;;;;;;19.79;35.75;100196.81;1755429;80;21042;-88
2022/05/15 10:05:24;;;;;;;6.57;2.03;;;;;;;19.62;36.34;100186.05;1790231;79;20986;-89
2022/05/15 10:08:09;;;;;;;7.20;2.00;;;;;;;19.53;36.78;100190.70;1778219;79;21560;-91
2022/05/15 10:11:01;;;;;;;5.43;1.90;;;;;;;19.52;36.53;100198.04;1756534;81;21049;-86
2022/05/15 10:13:52;;;;;;;6.70;2.20;;;;;;;19.59;36.80;100181.28;1758594;80;20990;-90
2022/05/15 10:16:28;;;;;;;5.20;1.80;;;;;;;19.93;37.40;100179.52;1784377;80;21054;-90
2022/05/15 10:19:05;;;;;;;5.73;2.10;;;;;;;20.26;35.91;100185.81;1773579;80;21037;-89
2022/05/15 10:21:47;;;;;;;5.83;1.93;;;;;;;20.47;35.94;100180.97;1782153;80;21136;-89
2022/05/15 10:24:31;;;;;;;6.33;1.92;;;;;;;20.67;35.34;100177.45;1766066;80;21102;-85
2022/05/15 10:27:10;;;;;;;7.13;2.10;;;;;;;20.88;35.40;100184.18;1756437;81;21003;-88
2022/05/15 10:29:51;;;;;;;4.57;2.10;;;;;;;21.04;34.83;100174.84;1769762;80;21022;-88
2022/05/15 10:32:24;;;;;;;5.95;1.80;;;;;;;20.99;34.10;100189.43;1787524;80;21052;-90
2022/05/15 10:34:53;;;;;;;7.53;2.40;;;;;;;20.90;34.52;100194.72;1787088;80;21245;-87
2022/05/15 10:38:02;;;;;;;5.23;1.97;;;;;;;20.96;34.58;100176.52;1787356;80;22388;-86
2022/05/15 10:40:55;;;;;;;7.03;2.30;;;;;;;21.06;34.28;100187.52;1785882;80;21037;-88
2022/05/15 10:43:45;;;;;;;7.10;2.10;;;;;;;21.04;34.99;100189.77;1787808;80;21018;-87
2022/05/15 10:46:25;;;;;;;6.27;2.10;;;;;;;20.97;34.56;100167.81;1785826;79;21150;-90
2022/05/15 10:49:15;;;;;;;4.87;2.07;;;;;;;20.90;35.02;100173.00;1787313;80;21065;-90
2022/05/15 10:51:57;;;;;;;5.17;1.90;;;;;;;20.87;34.26;100196.17;1637514;79;10000568;-87
2022/05/15 10:58:21;;;;;;;5.00;2.10;;;;;;;20.39;33.52;100181.25;1757144;80;20672;-92
2022/05/15 11:01:17;;;;;;;6.13;2.00;;;;;;;20.12;34.51;100188.79;1756208;81;21030;-91
2022/05/15 11:04:25;;;;;;;4.33;1.73;;;;;;;20.03;34.48;100190.77;1756984;80;21137;-90
2022/05/15 11:07:09;;;;;;;4.33;2.10;;;;;;;19.94;34.69;100187.34;1779184;80;21060;-91
2022/05/15 11:10:14;;;;;;;7.87;2.00;;;;;;;19.98;35.06;100188.83;1753276;78;21116;-89
2022/05/15 11:13:11;;;;;;;6.03;2.00;;;;;;;20.04;35.72;100185.59;1799060;78;21082;-88
2022/05/15 11:16:00;;;;;;;6.17;2.43;;;;;;;20.05;35.59;100182.31;1776960;79;21035;-87
2022/05/15 11:18:41;;;;;;;10.13;2.70;;;;;;;20.03;36.24;100194.04;1799932;77;22461;-89
2022/05/15 11:21:13;;;;;;;5.13;2.33;;;;;;;20.04;36.50;100206.45;1798811;79;21014;-89
2022/05/15 11:23:52;;;;;;;6.65;2.90;;;;;;;20.11;36.60;100193.98;1795126;79;27271;-88
2022/05/15 11:26:31;;;;;;;7.67;2.97;;;;;;;20.27;36.83;100197.45;1781210;80;21022;-88
2022/05/15 11:29:03;;;;;;;7.67;2.83;;;;;;;20.49;36.39;100181.41;1757865;80;21128;-90
2022/05/15 11:31:34;;;;;;;9.27;3.17;;;;;;;20.69;36.14;100186.03;1793264;79;21138;-89
2022/05/15 11:34:05;;;;;;;6.67;2.63;;;;;;;20.77;36.11;100193.88;1794379;79;21611;-90
2022/05/15 11:36:43;;;;;;;6.85;2.80;;;;;;;20.74;35.84;100188.55;1766673;78;26688;-89
2022/05/15 11:39:24;;;;;;;4.13;1.90;;;;;;;20.70;35.61;100180.86;1779607;79;21112;-85
2022/05/15 11:42:10;;;;;;;7.00;2.10;;;;;;;20.80;35.19;100193.22;1780550;80;21082;-87
2022/05/15 11:44:44;;;;;;;5.70;2.17;;;;;;;20.98;34.75;100193.83;1773495;80;21061;-88
2022/05/15 11:47:29;;;;;;;6.90;2.33;;;;;;;21.04;34.38;100178.34;1775266;80;21011;-90
2022/05/15 11:50:05;;;;;;;6.77;2.73;;;;;;;20.96;35.05;100181.14;1658386;79;10000502;-91
2022/05/15 11:52:38;;;;;;;6.80;2.37;;;;;;;20.83;35.25;100198.77;1798017;79;21307;-90
2022/05/15 11:55:42;;;;;;;5.97;2.37;;;;;;;20.67;35.00;100186.16;1785049;79;21865;-90
2022/05/15 11:58:26;;;;;;;6.83;2.73;;;;;;;20.53;35.04;100178.28;1786443;77;21070;-90
2022/05/15 12:01:38;;;;;;;6.83;2.63;;;;;;;20.45;36.30;100203.55;1748891;80;20952;-87
2022/05/15 12:04:09;;;;;;;5.87;2.47;;;;;;;20.42;36.30;100177.09;1803295;79;21557;-89
2022/05/15 12:06:58;;;;;;;9.15;2.75;;;;;;;20.33;36.08;100190.14;1811375;77;21027;-87
2022/05/15 12:09:43;;;;;;;6.07;2.30;;;;;;;20.37;36.10;100182.95;1826669;77;21030;-86
2022/05/15 12:12:28;;;;;;;9.43;2.40;;;;;;;20.45;35.54;100168.28;1847220;77;21151;-88
2022/05/15 12:15:13;;;;;;;4.13;2.00;;;;;;;20.53;35.83;100170.96;1825379;77;21061;-89